Terminal Aerodrome Forecast
Issued by NWS Louisville, KY

Home | Current Version | Previous Version | Text Only | Print | Product List | Glossary On
Versions: 1 2 3 4 5 6 7 8 9 10 11 12 13 14
000
FTUS43 KLMK 210520
TAFSDF
TAF
KSDF 210520Z 2106/2212 21003KT P6SM FEW250
      TEMPO 2110/2112 6SM BR
     FM211400 23006KT P6SM FEW060 BKN250=

USA.gov is the U.S. government's official web portal to all federal, state and local government web resources and services.